sensor_id;sensor_type;location;lat;lon;timestamp;P1;durP1;ratioP1;P2;durP2;ratioP2
55170;SDS011;41060;47.510;8.680;2022-07-29T00:01:57;1.33;;;0.90;;
55170;SDS011;41060;47.510;8.680;2022-07-29T00:04:24;1.35;;;0.90;;
55170;SDS011;41060;47.510;8.680;2022-07-29T00:06:50;2.10;;;0.90;;
55170;SDS011;41060;47.510;8.680;2022-07-29T00:09:18;1.58;;;1.00;;
55170;SDS011;41060;47.510;8.680;2022-07-29T00:11:46;3.58;;;1.10;;
55170;SDS011;41060;47.510;8.680;2022-07-29T00:14:13;2.08;;;1.33;;
55170;SDS011;41060;47.510;8.680;2022-07-29T00:16:40;2.05;;;1.13;;
55170;SDS011;41060;47.510;8.680;2022-07-29T00:19:07;1.48;;;0.80;;
55170;SDS011;41060;47.510;8.680;2022-07-29T00:21:34;3.70;;;1.10;;
55170;SDS011;41060;47.510;8.680;2022-07-29T00:24:01;1.52;;;1.10;;
55170;SDS011;41060;47.510;8.680;2022-07-29T00:26:28;1.33;;;0.98;;
55170;SDS011;41060;47.510;8.680;2022-07-29T00:28:58;1.77;;;0.82;;
55170;SDS011;41060;47.510;8.680;2022-07-29T00:31:25;1.13;;;0.55;;
55170;SDS011;41060;47.510;8.680;2022-07-29T00:33:55;1.77;;;1.10;;
55170;SDS011;41060;47.510;8.680;2022-07-29T00:36:22;1.77;;;1.05;;
55170;SDS011;41060;47.510;8.680;2022-07-29T00:38:49;2.08;;;1.25;;
55170;SDS011;41060;47.510;8.680;2022-07-29T00:41:17;1.70;;;0.98;;
55170;SDS011;41060;47.510;8.680;2022-07-29T00:43:46;1.90;;;1.02;;
55170;SDS011;41060;47.510;8.680;2022-07-29T00:46:16;1.20;;;0.90;;
55170;SDS011;41060;47.510;8.680;2022-07-29T00:48:42;1.48;;;1.05;;
55170;SDS011;41060;47.510;8.680;2022-07-29T00:51:09;1.30;;;0.75;;
55170;SDS011;41060;47.510;8.680;2022-07-29T00:53:36;2.15;;;1.10;;
55170;SDS011;41060;47.510;8.680;2022-07-29T00:56:04;1.65;;;1.13;;
55170;SDS011;41060;47.510;8.680;2022-07-29T00:58:31;1.55;;;1.00;;
55170;SDS011;41060;47.510;8.680;2022-07-29T01:00:58;1.67;;;1.00;;
55170;SDS011;41060;47.510;8.680;2022-07-29T01:03:26;2.10;;;1.17;;
55170;SDS011;41060;47.510;8.680;2022-07-29T01:05:53;3.80;;;1.08;;
55170;SDS011;41060;47.510;8.680;2022-07-29T01:08:21;1.40;;;0.90;;
55170;SDS011;41060;47.510;8.680;2022-07-29T01:10:49;2.05;;;0.75;;
55170;SDS011;41060;47.510;8.680;2022-07-29T01:13:17;1.92;;;1.02;;
55170;SDS011;41060;47.510;8.680;2022-07-29T01:15:46;1.02;;;0.73;;
55170;SDS011;41060;47.510;8.680;2022-07-29T01:18:18;2.10;;;1.27;;
55170;SDS011;41060;47.510;8.680;2022-07-29T01:20:55;1.80;;;1.00;;
55170;SDS011;41060;47.510;8.680;2022-07-29T01:23:51;2.28;;;1.10;;
55170;SDS011;41060;47.510;8.680;2022-07-29T01:26:34;1.13;;;0.70;;
55170;SDS011;41060;47.510;8.680;2022-07-29T01:29:14;1.50;;;1.10;;
55170;SDS011;41060;47.510;8.680;2022-07-29T01:31:47;1.33;;;0.85;;
55170;SDS011;41060;47.510;8.680;2022-07-29T01:34:21;3.53;;;1.00;;
55170;SDS011;41060;47.510;8.680;2022-07-29T01:36:51;1.60;;;0.93;;
55170;SDS011;41060;47.510;8.680;2022-07-29T01:39:28;4.25;;;0.95;;
55170;SDS011;41060;47.510;8.680;2022-07-29T01:41:59;1.48;;;1.10;;
55170;SDS011;41060;47.510;8.680;2022-07-29T01:44:34;1.13;;;0.82;;
55170;SDS011;41060;47.510;8.680;2022-07-29T01:47:08;2.63;;;1.30;;
55170;SDS011;41060;47.510;8.680;2022-07-29T01:49:39;1.83;;;1.25;;
55170;SDS011;41060;47.510;8.680;2022-07-29T01:52:11;2.25;;;1.45;;
55170;SDS011;41060;47.510;8.680;2022-07-29T01:54:42;1.92;;;0.88;;
55170;SDS011;41060;47.510;8.680;2022-07-29T01:57:13;1.95;;;0.77;;
55170;SDS011;41060;47.510;8.680;2022-07-29T01:59:43;1.85;;;1.05;;
55170;SDS011;41060;47.510;8.680;2022-07-29T02:02:14;3.55;;;1.08;;
55170;SDS011;41060;47.510;8.680;2022-07-29T02:04:42;2.15;;;1.58;;
55170;SDS011;41060;47.510;8.680;2022-07-29T02:07:15;3.03;;;1.48;;
55170;SDS011;41060;47.510;8.680;2022-07-29T02:09:45;2.80;;;1.63;;
55170;SDS011;41060;47.510;8.680;2022-07-29T02:12:14;3.17;;;1.65;;
55170;SDS011;41060;47.510;8.680;2022-07-29T02:14:45;5.00;;;1.50;;
55170;SDS011;41060;47.510;8.680;2022-07-29T02:17:17;3.05;;;1.60;;
55170;SDS011;41060;47.510;8.680;2022-07-29T02:19:48;2.13;;;1.30;;
55170;SDS011;41060;47.510;8.680;2022-07-29T02:22:16;3.33;;;1.83;;
55170;SDS011;41060;47.510;8.680;2022-07-29T02:24:46;2.13;;;1.27;;
55170;SDS011;41060;47.510;8.680;2022-07-29T02:27:15;2.42;;;1.30;;
55170;SDS011;41060;47.510;8.680;2022-07-29T02:29:45;2.65;;;1.60;;
55170;SDS011;41060;47.510;8.680;2022-07-29T02:32:14;1.95;;;1.00;;
55170;SDS011;41060;47.510;8.680;2022-07-29T02:34:43;1.73;;;0.82;;
55170;SDS011;41060;47.510;8.680;2022-07-29T02:37:11;2.22;;;1.27;;
55170;SDS011;41060;47.510;8.680;2022-07-29T02:39:40;0.95;;;0.70;;
55170;SDS011;41060;47.510;8.680;2022-07-29T02:42:11;1.52;;;0.95;;
55170;SDS011;41060;47.510;8.680;2022-07-29T02:44:42;2.47;;;1.17;;
55170;SDS011;41060;47.510;8.680;2022-07-29T02:47:13;1.58;;;1.17;;
55170;SDS011;41060;47.510;8.680;2022-07-29T02:49:48;1.27;;;0.85;;
55170;SDS011;41060;47.510;8.680;2022-07-29T02:52:21;1.10;;;0.70;;
55170;SDS011;41060;47.510;8.680;2022-07-29T02:54:51;1.25;;;0.85;;
55170;SDS011;41060;47.510;8.680;2022-07-29T02:57:22;1.50;;;0.80;;
55170;SDS011;41060;47.510;8.680;2022-07-29T02:59:58;1.77;;;0.93;;
55170;SDS011;41060;47.510;8.680;2022-07-29T03:02:31;3.30;;;1.17;;
55170;SDS011;41060;47.510;8.680;2022-07-29T03:05:01;1.80;;;0.98;;
55170;SDS011;41060;47.510;8.680;2022-07-29T03:07:29;1.25;;;0.88;;
55170;SDS011;41060;47.510;8.680;2022-07-29T03:09:57;1.77;;;1.00;;
55170;SDS011;41060;47.510;8.680;2022-07-29T03:12:25;1.58;;;0.95;;
55170;SDS011;41060;47.510;8.680;2022-07-29T03:14:53;1.65;;;1.00;;
55170;SDS011;41060;47.510;8.680;2022-07-29T03:17:21;1.27;;;0.90;;
55170;SDS011;41060;47.510;8.680;2022-07-29T03:19:50;2.58;;;0.95;;
55170;SDS011;41060;47.510;8.680;2022-07-29T03:22:17;5.38;;;1.17;;
55170;SDS011;41060;47.510;8.680;2022-07-29T03:24:44;1.75;;;0.98;;
55170;SDS011;41060;47.510;8.680;2022-07-29T03:27:11;2.78;;;1.00;;
55170;SDS011;41060;47.510;8.680;2022-07-29T03:29:41;1.52;;;1.00;;
55170;SDS011;41060;47.510;8.680;2022-07-29T03:32:08;3.65;;;1.40;;
55170;SDS011;41060;47.510;8.680;2022-07-29T03:34:35;1.98;;;1.13;;
55170;SDS011;41060;47.510;8.680;2022-07-29T03:37:05;3.63;;;0.90;;
55170;SDS011;41060;47.510;8.680;2022-07-29T03:39:34;1.33;;;0.77;;
55170;SDS011;41060;47.510;8.680;2022-07-29T03:42:05;1.35;;;0.88;;
55170;SDS011;41060;47.510;8.680;2022-07-29T03:44:34;1.20;;;0.80;;
55170;SDS011;41060;47.510;8.680;2022-07-29T03:47:03;1.15;;;0.80;;
55170;SDS011;41060;47.510;8.680;2022-07-29T03:49:33;1.60;;;0.90;;
55170;SDS011;41060;47.510;8.680;2022-07-29T03:52:03;1.23;;;0.82;;
55170;SDS011;41060;47.510;8.680;2022-07-29T03:54:31;1.05;;;0.80;;
55170;SDS011;41060;47.510;8.680;2022-07-29T03:57:02;1.38;;;0.88;;
55170;SDS011;41060;47.510;8.680;2022-07-29T03:59:32;1.73;;;0.95;;
55170;SDS011;41060;47.510;8.680;2022-07-29T04:02:00;1.88;;;0.77;;
55170;SDS011;41060;47.510;8.680;2022-07-29T04:04:31;2.35;;;1.02;;
55170;SDS011;41060;47.510;8.680;2022-07-29T04:06:59;1.88;;;1.08;;
55170;SDS011;41060;47.510;8.680;2022-07-29T04:09:27;1.42;;;0.80;;
55170;SDS011;41060;47.510;8.680;2022-07-29T04:11:54;1.58;;;0.90;;
55170;SDS011;41060;47.510;8.680;2022-07-29T04:14:21;1.50;;;0.80;;
55170;SDS011;41060;47.510;8.680;2022-07-29T04:16:48;1.17;;;0.90;;
55170;SDS011;41060;47.510;8.680;2022-07-29T04:19:15;1.38;;;0.90;;
55170;SDS011;41060;47.510;8.680;2022-07-29T04:21:41;1.05;;;0.73;;
55170;SDS011;41060;47.510;8.680;2022-07-29T04:24:11;1.95;;;1.20;;
55170;SDS011;41060;47.510;8.680;2022-07-29T04:26:40;2.05;;;0.70;;
55170;SDS011;41060;47.510;8.680;2022-07-29T04:29:06;2.58;;;1.23;;
55170;SDS011;41060;47.510;8.680;2022-07-29T04:31:34;1.77;;;0.95;;
55170;SDS011;41060;47.510;8.680;2022-07-29T04:34:00;1.52;;;0.90;;
55170;SDS011;41060;47.510;8.680;2022-07-29T04:36:27;3.10;;;1.40;;
55170;SDS011;41060;47.510;8.680;2022-07-29T04:38:54;4.45;;;1.33;;
55170;SDS011;41060;47.510;8.680;2022-07-29T04:41:21;1.73;;;1.17;;
55170;SDS011;41060;47.510;8.680;2022-07-29T04:43:49;2.25;;;1.38;;
55170;SDS011;41060;47.510;8.680;2022-07-29T04:46:16;2.25;;;1.30;;
55170;SDS011;41060;47.510;8.680;2022-07-29T04:48:46;2.00;;;1.08;;
55170;SDS011;41060;47.510;8.680;2022-07-29T04:51:13;1.80;;;1.20;;
55170;SDS011;41060;47.510;8.680;2022-07-29T04:53:43;2.30;;;1.30;;
55170;SDS011;41060;47.510;8.680;2022-07-29T04:56:10;1.67;;;1.15;;
55170;SDS011;41060;47.510;8.680;2022-07-29T04:58:37;1.73;;;0.82;;
55170;SDS011;41060;47.510;8.680;2022-07-29T05:01:06;2.55;;;1.40;;
55170;SDS011;41060;47.510;8.680;2022-07-29T05:03:33;1.75;;;0.82;;
55170;SDS011;41060;47.510;8.680;2022-07-29T05:05:59;1.55;;;1.15;;
55170;SDS011;41060;47.510;8.680;2022-07-29T05:08:27;2.47;;;1.42;;
55170;SDS011;41060;47.510;8.680;2022-07-29T05:10:54;3.03;;;1.25;;
55170;SDS011;41060;47.510;8.680;2022-07-29T05:13:20;1.90;;;1.08;;
55170;SDS011;41060;47.510;8.680;2022-07-29T05:15:48;3.75;;;1.73;;
55170;SDS011;41060;47.510;8.680;2022-07-29T05:18:16;2.70;;;1.50;;
55170;SDS011;41060;47.510;8.680;2022-07-29T05:20:43;2.45;;;1.23;;
55170;SDS011;41060;47.510;8.680;2022-07-29T05:23:10;2.97;;;1.73;;
55170;SDS011;41060;47.510;8.680;2022-07-29T05:25:38;2.30;;;1.33;;
55170;SDS011;41060;47.510;8.680;2022-07-29T05:28:05;2.35;;;1.30;;
55170;SDS011;41060;47.510;8.680;2022-07-29T05:30:32;4.03;;;1.50;;
55170;SDS011;41060;47.510;8.680;2022-07-29T05:32:59;2.97;;;1.27;;
55170;SDS011;41060;47.510;8.680;2022-07-29T05:35:27;3.83;;;1.33;;
55170;SDS011;41060;47.510;8.680;2022-07-29T05:37:54;1.48;;;0.80;;
55170;SDS011;41060;47.510;8.680;2022-07-29T05:40:21;1.67;;;1.15;;
55170;SDS011;41060;47.510;8.680;2022-07-29T05:42:47;2.55;;;1.20;;
55170;SDS011;41060;47.510;8.680;2022-07-29T05:45:15;3.13;;;1.70;;
55170;SDS011;41060;47.510;8.680;2022-07-29T05:47:41;2.28;;;1.40;;
55170;SDS011;41060;47.510;8.680;2022-07-29T05:50:08;1.95;;;1.55;;
55170;SDS011;41060;47.510;8.680;2022-07-29T05:52:37;3.53;;;1.13;;
55170;SDS011;41060;47.510;8.680;2022-07-29T05:55:06;3.30;;;1.77;;
55170;SDS011;41060;47.510;8.680;2022-07-29T05:57:34;2.90;;;1.58;;
55170;SDS011;41060;47.510;8.680;2022-07-29T06:00:01;6.55;;;1.63;;
55170;SDS011;41060;47.510;8.680;2022-07-29T06:02:32;6.18;;;1.67;;
55170;SDS011;41060;47.510;8.680;2022-07-29T06:04:59;2.28;;;1.20;;
55170;SDS011;41060;47.510;8.680;2022-07-29T06:07:26;2.50;;;1.60;;
55170;SDS011;41060;47.510;8.680;2022-07-29T06:09:54;4.95;;;1.88;;
55170;SDS011;41060;47.510;8.680;2022-07-29T06:12:21;2.40;;;1.55;;
55170;SDS011;41060;47.510;8.680;2022-07-29T06:14:49;2.70;;;1.63;;
55170;SDS011;41060;47.510;8.680;2022-07-29T06:17:16;5.95;;;1.58;;
55170;SDS011;41060;47.510;8.680;2022-07-29T06:19:43;2.63;;;1.25;;
55170;SDS011;41060;47.510;8.680;2022-07-29T06:22:10;2.53;;;1.40;;
55170;SDS011;41060;47.510;8.680;2022-07-29T06:24:37;4.10;;;1.50;;
55170;SDS011;41060;47.510;8.680;2022-07-29T06:27:08;2.45;;;1.70;;
55170;SDS011;41060;47.510;8.680;2022-07-29T06:29:35;3.40;;;1.33;;
55170;SDS011;41060;47.510;8.680;2022-07-29T06:32:02;3.47;;;1.27;;
55170;SDS011;41060;47.510;8.680;2022-07-29T06:34:29;3.75;;;1.63;;
55170;SDS011;41060;47.510;8.680;2022-07-29T06:36:57;5.18;;;1.80;;
55170;SDS011;41060;47.510;8.680;2022-07-29T06:39:23;8.27;;;1.45;;
55170;SDS011;41060;47.510;8.680;2022-07-29T06:41:50;3.08;;;1.15;;
55170;SDS011;41060;47.510;8.680;2022-07-29T06:44:19;2.40;;;1.15;;
55170;SDS011;41060;47.510;8.680;2022-07-29T06:46:46;1.67;;;1.13;;
55170;SDS011;41060;47.510;8.680;2022-07-29T06:49:14;2.63;;;1.27;;
55170;SDS011;41060;47.510;8.680;2022-07-29T06:51:41;5.45;;;1.23;;
55170;SDS011;41060;47.510;8.680;2022-07-29T06:54:08;4.63;;;1.20;;
55170;SDS011;41060;47.510;8.680;2022-07-29T06:56:34;3.65;;;1.38;;
55170;SDS011;41060;47.510;8.680;2022-07-29T06:59:03;1.88;;;1.10;;
55170;SDS011;41060;47.510;8.680;2022-07-29T07:01:31;1.77;;;1.08;;
55170;SDS011;41060;47.510;8.680;2022-07-29T07:03:58;1.40;;;0.88;;
55170;SDS011;41060;47.510;8.680;2022-07-29T07:06:25;3.22;;;1.13;;
55170;SDS011;41060;47.510;8.680;2022-07-29T07:08:52;1.90;;;1.13;;
55170;SDS011;41060;47.510;8.680;2022-07-29T07:11:18;3.22;;;1.27;;
55170;SDS011;41060;47.510;8.680;2022-07-29T07:13:46;3.65;;;1.15;;
55170;SDS011;41060;47.510;8.680;2022-07-29T07:16:12;1.95;;;0.95;;
55170;SDS011;41060;47.510;8.680;2022-07-29T07:18:40;1.10;;;0.80;;
55170;SDS011;41060;47.510;8.680;2022-07-29T07:21:08;5.03;;;1.30;;
55170;SDS011;41060;47.510;8.680;2022-07-29T07:23:39;1.63;;;1.00;;
55170;SDS011;41060;47.510;8.680;2022-07-29T07:26:06;1.38;;;0.95;;
55170;SDS011;41060;47.510;8.680;2022-07-29T07:28:33;0.98;;;0.60;;
55170;SDS011;41060;47.510;8.680;2022-07-29T07:31:00;2.55;;;1.38;;
55170;SDS011;41060;47.510;8.680;2022-07-29T07:33:27;1.77;;;0.95;;
55170;SDS011;41060;47.510;8.680;2022-07-29T07:35:55;1.15;;;0.80;;
55170;SDS011;41060;47.510;8.680;2022-07-29T07:38:22;3.47;;;0.95;;
55170;SDS011;41060;47.510;8.680;2022-07-29T07:40:49;2.10;;;1.02;;
55170;SDS011;41060;47.510;8.680;2022-07-29T07:43:16;1.73;;;0.80;;
55170;SDS011;41060;47.510;8.680;2022-07-29T07:45:43;1.63;;;1.00;;
55170;SDS011;41060;47.510;8.680;2022-07-29T07:48:09;2.80;;;1.13;;
55170;SDS011;41060;47.510;8.680;2022-07-29T07:50:37;2.60;;;1.00;;
55170;SDS011;41060;47.510;8.680;2022-07-29T07:53:05;3.67;;;1.00;;
55170;SDS011;41060;47.510;8.680;2022-07-29T07:55:31;2.08;;;0.95;;
55170;SDS011;41060;47.510;8.680;2022-07-29T07:57:59;3.65;;;1.17;;
55170;SDS011;41060;47.510;8.680;2022-07-29T08:00:25;2.30;;;1.00;;
55170;SDS011;41060;47.510;8.680;2022-07-29T08:02:52;1.88;;;1.08;;
55170;SDS011;41060;47.510;8.680;2022-07-29T08:05:19;1.38;;;0.98;;
55170;SDS011;41060;47.510;8.680;2022-07-29T08:07:46;1.70;;;1.13;;
55170;SDS011;41060;47.510;8.680;2022-07-29T08:10:15;2.03;;;1.00;;
55170;SDS011;41060;47.510;8.680;2022-07-29T08:13:05;2.70;;;1.30;;
55170;SDS011;41060;47.510;8.680;2022-07-29T08:15:32;2.22;;;1.27;;
55170;SDS011;41060;47.510;8.680;2022-07-29T08:17:59;2.97;;;1.05;;
55170;SDS011;41060;47.510;8.680;2022-07-29T08:20:26;3.00;;;1.05;;
55170;SDS011;41060;47.510;8.680;2022-07-29T08:22:53;2.15;;;1.30;;
55170;SDS011;41060;47.510;8.680;2022-07-29T08:25:21;3.85;;;1.17;;
55170;SDS011;41060;47.510;8.680;2022-07-29T08:27:48;4.03;;;1.80;;
55170;SDS011;41060;47.510;8.680;2022-07-29T08:30:15;2.22;;;1.10;;
55170;SDS011;41060;47.510;8.680;2022-07-29T08:32:42;1.70;;;1.02;;
55170;SDS011;41060;47.510;8.680;2022-07-29T08:35:09;3.92;;;1.35;;
55170;SDS011;41060;47.510;8.680;2022-07-29T08:37:36;1.35;;;0.93;;
55170;SDS011;41060;47.510;8.680;2022-07-29T08:40:05;1.10;;;0.73;;
55170;SDS011;41060;47.510;8.680;2022-07-29T08:42:34;1.83;;;1.17;;
55170;SDS011;41060;47.510;8.680;2022-07-29T08:45:02;2.38;;;1.23;;
55170;SDS011;41060;47.510;8.680;2022-07-29T08:47:29;2.20;;;1.02;;
55170;SDS011;41060;47.510;8.680;2022-07-29T08:49:57;2.80;;;1.10;;
55170;SDS011;41060;47.510;8.680;2022-07-29T08:52:25;1.70;;;1.05;;
55170;SDS011;41060;47.510;8.680;2022-07-29T08:54:53;2.05;;;1.33;;
55170;SDS011;41060;47.510;8.680;2022-07-29T08:57:21;2.22;;;0.95;;
55170;SDS011;41060;47.510;8.680;2022-07-29T08:59:49;1.92;;;1.08;;
55170;SDS011;41060;47.510;8.680;2022-07-29T09:02:19;1.95;;;1.00;;
55170;SDS011;41060;47.510;8.680;2022-07-29T09:04:47;2.13;;;1.00;;
55170;SDS011;41060;47.510;8.680;2022-07-29T09:07:15;3.10;;;1.27;;
55170;SDS011;41060;47.510;8.680;2022-07-29T09:09:43;1.60;;;1.10;;
55170;SDS011;41060;47.510;8.680;2022-07-29T09:12:11;1.85;;;1.10;;
55170;SDS011;41060;47.510;8.680;2022-07-29T09:14:39;2.00;;;1.02;;
55170;SDS011;41060;47.510;8.680;2022-07-29T09:17:07;1.77;;;1.30;;
55170;SDS011;41060;47.510;8.680;2022-07-29T09:19:35;2.13;;;1.10;;
55170;SDS011;41060;47.510;8.680;2022-07-29T09:22:03;1.55;;;0.95;;
55170;SDS011;41060;47.510;8.680;2022-07-29T09:24:41;2.20;;;1.27;;
55170;SDS011;41060;47.510;8.680;2022-07-29T09:27:20;1.80;;;1.25;;
55170;SDS011;41060;47.510;8.680;2022-07-29T09:29:55;2.15;;;1.48;;
55170;SDS011;41060;47.510;8.680;2022-07-29T09:32:24;2.72;;;1.20;;
55170;SDS011;41060;47.510;8.680;2022-07-29T09:34:58;4.95;;;1.40;;
55170;SDS011;41060;47.510;8.680;2022-07-29T09:37:40;1.88;;;1.40;;
55170;SDS011;41060;47.510;8.680;2022-07-29T09:40:11;2.03;;;1.33;;
55170;SDS011;41060;47.510;8.680;2022-07-29T09:42:39;2.33;;;1.55;;
55170;SDS011;41060;47.510;8.680;2022-07-29T09:45:06;2.17;;;1.33;;
55170;SDS011;41060;47.510;8.680;2022-07-29T09:47:42;4.50;;;1.45;;
55170;SDS011;41060;47.510;8.680;2022-07-29T09:50:14;5.03;;;1.63;;
55170;SDS011;41060;47.510;8.680;2022-07-29T09:52:44;1.80;;;1.10;;
55170;SDS011;41060;47.510;8.680;2022-07-29T09:55:12;3.50;;;1.20;;
55170;SDS011;41060;47.510;8.680;2022-07-29T09:57:40;2.35;;;1.30;;
55170;SDS011;41060;47.510;8.680;2022-07-29T10:00:08;1.98;;;1.40;;
55170;SDS011;41060;47.510;8.680;2022-07-29T10:02:36;2.53;;;1.48;;
55170;SDS011;41060;47.510;8.680;2022-07-29T10:05:16;2.83;;;1.30;;
55170;SDS011;41060;47.510;8.680;2022-07-29T10:07:44;4.28;;;1.25;;
55170;SDS011;41060;47.510;8.680;2022-07-29T10:10:18;1.83;;;1.20;;
55170;SDS011;41060;47.510;8.680;2022-07-29T10:12:50;2.67;;;1.33;;
55170;SDS011;41060;47.510;8.680;2022-07-29T10:15:21;2.25;;;1.10;;
55170;SDS011;41060;47.510;8.680;2022-07-29T10:17:48;1.80;;;1.15;;
55170;SDS011;41060;47.510;8.680;2022-07-29T10:20:18;2.65;;;1.25;;
55170;SDS011;41060;47.510;8.680;2022-07-29T10:22:46;3.63;;;1.05;;
55170;SDS011;41060;47.510;8.680;2022-07-29T10:25:14;1.67;;;1.45;;
55170;SDS011;41060;47.510;8.680;2022-07-29T10:27:42;3.33;;;1.20;;
55170;SDS011;41060;47.510;8.680;2022-07-29T10:30:09;1.90;;;1.50;;
55170;SDS011;41060;47.510;8.680;2022-07-29T10:32:49;2.10;;;1.50;;
55170;SDS011;41060;47.510;8.680;2022-07-29T10:38:28;3.22;;;1.70;;
55170;SDS011;41060;47.510;8.680;2022-07-29T10:41:08;3.47;;;1.20;;
55170;SDS011;41060;47.510;8.680;2022-07-29T10:43:55;1.83;;;1.27;;
55170;SDS011;41060;47.510;8.680;2022-07-29T10:46:25;3.50;;;1.20;;
55170;SDS011;41060;47.510;8.680;2022-07-29T10:49:06;2.20;;;1.38;;
55170;SDS011;41060;47.510;8.680;2022-07-29T10:51:55;1.85;;;1.23;;
55170;SDS011;41060;47.510;8.680;2022-07-29T10:54:44;2.25;;;1.40;;
55170;SDS011;41060;47.510;8.680;2022-07-29T10:57:23;3.38;;;1.55;;
55170;SDS011;41060;47.510;8.680;2022-07-29T11:02:53;1.73;;;1.33;;
55170;SDS011;41060;47.510;8.680;2022-07-29T11:05:21;2.80;;;1.42;;
55170;SDS011;41060;47.510;8.680;2022-07-29T11:10:52;1.88;;;1.38;;
55170;SDS011;41060;47.510;8.680;2022-07-29T11:13:44;1.30;;;1.10;;
55170;SDS011;41060;47.510;8.680;2022-07-29T11:16:13;5.95;;;1.60;;
55170;SDS011;41060;47.510;8.680;2022-07-29T11:21:45;2.60;;;1.42;;
55170;SDS011;41060;47.510;8.680;2022-07-29T11:24:14;2.15;;;1.30;;
55170;SDS011;41060;47.510;8.680;2022-07-29T11:26:43;4.72;;;1.50;;
55170;SDS011;41060;47.510;8.680;2022-07-29T11:29:32;2.08;;;1.30;;
55170;SDS011;41060;47.510;8.680;2022-07-29T11:32:08;2.85;;;1.52;;
55170;SDS011;41060;47.510;8.680;2022-07-29T11:34:36;1.58;;;0.98;;
55170;SDS011;41060;47.510;8.680;2022-07-29T11:37:15;1.85;;;1.50;;
55170;SDS011;41060;47.510;8.680;2022-07-29T11:39:45;4.35;;;1.58;;
55170;SDS011;41060;47.510;8.680;2022-07-29T11:45:04;3.13;;;1.63;;
55170;SDS011;41060;47.510;8.680;2022-07-29T11:47:33;2.65;;;1.48;;
55170;SDS011;41060;47.510;8.680;2022-07-29T11:50:02;2.33;;;1.40;;
55170;SDS011;41060;47.510;8.680;2022-07-29T11:52:32;1.80;;;1.30;;
55170;SDS011;41060;47.510;8.680;2022-07-29T11:55:04;2.03;;;1.33;;
55170;SDS011;41060;47.510;8.680;2022-07-29T11:57:33;5.20;;;1.75;;
55170;SDS011;41060;47.510;8.680;2022-07-29T12:00:02;3.13;;;1.60;;
55170;SDS011;41060;47.510;8.680;2022-07-29T12:02:40;3.03;;;1.63;;
55170;SDS011;41060;47.510;8.680;2022-07-29T12:05:08;3.97;;;1.55;;
55170;SDS011;41060;47.510;8.680;2022-07-29T12:07:37;1.58;;;1.20;;
55170;SDS011;41060;47.510;8.680;2022-07-29T12:10:06;3.25;;;1.40;;
55170;SDS011;41060;47.510;8.680;2022-07-29T12:12:34;2.15;;;1.38;;
55170;SDS011;41060;47.510;8.680;2022-07-29T12:15:10;2.15;;;1.30;;
55170;SDS011;41060;47.510;8.680;2022-07-29T12:17:38;4.00;;;1.55;;
55170;SDS011;41060;47.510;8.680;2022-07-29T12:20:06;2.40;;;1.60;;
55170;SDS011;41060;47.510;8.680;2022-07-29T12:22:34;2.25;;;1.40;;
55170;SDS011;41060;47.510;8.680;2022-07-29T12:25:03;2.17;;;1.58;;
55170;SDS011;41060;47.510;8.680;2022-07-29T12:27:34;2.65;;;1.30;;
55170;SDS011;41060;47.510;8.680;2022-07-29T12:30:03;1.90;;;1.40;;
55170;SDS011;41060;47.510;8.680;2022-07-29T12:32:32;2.40;;;1.90;;
55170;SDS011;41060;47.510;8.680;2022-07-29T12:35:02;2.65;;;1.52;;
55170;SDS011;41060;47.510;8.680;2022-07-29T12:37:30;2.75;;;1.60;;
55170;SDS011;41060;47.510;8.680;2022-07-29T12:39:59;2.25;;;1.60;;
55170;SDS011;41060;47.510;8.680;2022-07-29T12:42:28;2.42;;;1.80;;
55170;SDS011;41060;47.510;8.680;2022-07-29T12:44:55;2.30;;;1.48;;
55170;SDS011;41060;47.510;8.680;2022-07-29T12:47:22;3.17;;;1.52;;
55170;SDS011;41060;47.510;8.680;2022-07-29T12:49:49;2.53;;;1.50;;
55170;SDS011;41060;47.510;8.680;2022-07-29T12:52:23;2.22;;;1.90;;
55170;SDS011;41060;47.510;8.680;2022-07-29T12:54:52;4.38;;;1.60;;
55170;SDS011;41060;47.510;8.680;2022-07-29T12:57:29;1.80;;;1.33;;
55170;SDS011;41060;47.510;8.680;2022-07-29T13:00:00;3.85;;;1.80;;
55170;SDS011;41060;47.510;8.680;2022-07-29T13:02:30;2.20;;;1.42;;
55170;SDS011;41060;47.510;8.680;2022-07-29T13:04:58;2.42;;;1.63;;
55170;SDS011;41060;47.510;8.680;2022-07-29T13:07:27;2.88;;;1.67;;
55170;SDS011;41060;47.510;8.680;2022-07-29T13:09:57;2.40;;;1.50;;
55170;SDS011;41060;47.510;8.680;2022-07-29T13:13:06;1.90;;;1.27;;
55170;SDS011;41060;47.510;8.680;2022-07-29T13:15:34;2.00;;;1.50;;
55170;SDS011;41060;47.510;8.680;2022-07-29T13:18:02;2.38;;;1.40;;
55170;SDS011;41060;47.510;8.680;2022-07-29T13:20:29;4.35;;;2.03;;
55170;SDS011;41060;47.510;8.680;2022-07-29T13:22:57;1.58;;;1.30;;
55170;SDS011;41060;47.510;8.680;2022-07-29T13:25:26;2.95;;;1.55;;
55170;SDS011;41060;47.510;8.680;2022-07-29T13:27:54;1.73;;;1.25;;
55170;SDS011;41060;47.510;8.680;2022-07-29T13:30:23;1.83;;;1.40;;
55170;SDS011;41060;47.510;8.680;2022-07-29T13:32:51;3.47;;;1.38;;
55170;SDS011;41060;47.510;8.680;2022-07-29T13:35:20;2.00;;;1.50;;
55170;SDS011;41060;47.510;8.680;2022-07-29T13:37:47;1.98;;;1.52;;
55170;SDS011;41060;47.510;8.680;2022-07-29T13:40:14;3.42;;;1.92;;
55170;SDS011;41060;47.510;8.680;2022-07-29T13:42:41;3.03;;;1.98;;
55170;SDS011;41060;47.510;8.680;2022-07-29T13:45:10;3.67;;;2.38;;
55170;SDS011;41060;47.510;8.680;2022-07-29T13:47:39;2.72;;;1.92;;
55170;SDS011;41060;47.510;8.680;2022-07-29T13:50:09;4.63;;;2.15;;
55170;SDS011;41060;47.510;8.680;2022-07-29T13:52:36;3.95;;;2.20;;
55170;SDS011;41060;47.510;8.680;2022-07-29T13:55:04;4.70;;;2.22;;
55170;SDS011;41060;47.510;8.680;2022-07-29T13:57:32;4.30;;;2.30;;
55170;SDS011;41060;47.510;8.680;2022-07-29T13:59:58;3.58;;;1.80;;
55170;SDS011;41060;47.510;8.680;2022-07-29T14:02:26;4.50;;;2.20;;
55170;SDS011;41060;47.510;8.680;2022-07-29T14:04:54;4.13;;;1.70;;
55170;SDS011;41060;47.510;8.680;2022-07-29T14:07:22;3.25;;;1.67;;
55170;SDS011;41060;47.510;8.680;2022-07-29T14:09:52;4.45;;;1.80;;
55170;SDS011;41060;47.510;8.680;2022-07-29T14:12:18;2.30;;;1.42;;
55170;SDS011;41060;47.510;8.680;2022-07-29T14:14:46;2.78;;;2.10;;
55170;SDS011;41060;47.510;8.680;2022-07-29T14:17:13;4.00;;;2.30;;
55170;SDS011;41060;47.510;8.680;2022-07-29T14:19:40;2.83;;;1.73;;
55170;SDS011;41060;47.510;8.680;2022-07-29T14:22:08;3.55;;;1.90;;
55170;SDS011;41060;47.510;8.680;2022-07-29T14:24:36;3.00;;;1.90;;
55170;SDS011;41060;47.510;8.680;2022-07-29T14:27:03;3.42;;;1.50;;
55170;SDS011;41060;47.510;8.680;2022-07-29T14:29:30;3.10;;;2.08;;
55170;SDS011;41060;47.510;8.680;2022-07-29T14:31:58;2.78;;;1.60;;
55170;SDS011;41060;47.510;8.680;2022-07-29T14:34:25;3.75;;;1.38;;
55170;SDS011;41060;47.510;8.680;2022-07-29T14:36:51;3.50;;;1.77;;
55170;SDS011;41060;47.510;8.680;2022-07-29T14:39:22;2.10;;;1.40;;
55170;SDS011;41060;47.510;8.680;2022-07-29T14:41:49;2.72;;;1.55;;
55170;SDS011;41060;47.510;8.680;2022-07-29T14:44:16;2.33;;;1.58;;
55170;SDS011;41060;47.510;8.680;2022-07-29T14:46:43;3.72;;;1.88;;
55170;SDS011;41060;47.510;8.680;2022-07-29T14:49:10;4.45;;;1.17;;
55170;SDS011;41060;47.510;8.680;2022-07-29T14:51:37;1.83;;;1.20;;
55170;SDS011;41060;47.510;8.680;2022-07-29T14:54:04;3.17;;;1.13;;
55170;SDS011;41060;47.510;8.680;2022-07-29T14:56:32;2.00;;;1.20;;
55170;SDS011;41060;47.510;8.680;2022-07-29T14:59:00;1.33;;;1.20;;
55170;SDS011;41060;47.510;8.680;2022-07-29T15:01:28;1.95;;;1.30;;
55170;SDS011;41060;47.510;8.680;2022-07-29T15:03:57;7.30;;;2.00;;
55170;SDS011;41060;47.510;8.680;2022-07-29T15:06:26;2.25;;;1.52;;
55170;SDS011;41060;47.510;8.680;2022-07-29T15:08:55;3.85;;;1.33;;
55170;SDS011;41060;47.510;8.680;2022-07-29T15:11:21;3.45;;;1.88;;
55170;SDS011;41060;47.510;8.680;2022-07-29T15:13:49;2.75;;;1.58;;
55170;SDS011;41060;47.510;8.680;2022-07-29T15:16:17;2.58;;;2.10;;